createdAt,value
2022-10-13T00:01:53.278Z,8.50
2022-10-13T00:04:20.029Z,8.50
2022-10-13T00:06:46.981Z,8.50
2022-10-13T00:09:14.168Z,8.50
2022-10-13T00:11:40.890Z,8.50
2022-10-13T00:14:07.647Z,8.50
2022-10-13T00:16:36.042Z,8.50
2022-10-13T00:19:03.162Z,8.50
2022-10-13T00:21:30.056Z,8.50
2022-10-13T00:23:56.858Z,8.50
2022-10-13T00:26:24.971Z,8.60
2022-10-13T00:28:53.065Z,8.60
2022-10-13T00:31:26.993Z,8.60
2022-10-13T00:33:54.256Z,8.60
2022-10-13T00:36:22.610Z,8.60
2022-10-13T00:38:49.907Z,8.60
2022-10-13T00:41:16.632Z,8.60
2022-10-13T00:44:01.937Z,8.60
2022-10-13T00:46:32.600Z,8.60
2022-10-13T00:49:04.612Z,8.70
2022-10-13T00:51:33.613Z,8.70
2022-10-13T00:54:01.421Z,8.70
2022-10-13T00:56:28.247Z,8.60
2022-10-13T00:58:55.846Z,8.70
2022-10-13T01:01:22.939Z,8.70
2022-10-13T01:03:49.651Z,8.70
2022-10-13T01:06:21.157Z,8.60
2022-10-13T01:08:50.260Z,8.60
2022-10-13T01:11:22.864Z,8.70
2022-10-13T01:14:08.427Z,8.60
2022-10-13T01:16:54.075Z,8.70
2022-10-13T01:19:39.940Z,8.70
2022-10-13T01:22:35.775Z,8.70
2022-10-13T01:25:11.241Z,8.70
2022-10-13T01:27:40.670Z,8.70
2022-10-13T01:30:10.221Z,8.70
2022-10-13T01:32:40.104Z,8.80
2022-10-13T01:35:12.121Z,8.80
2022-10-13T01:37:51.249Z,8.80
2022-10-13T01:40:23.524Z,8.80
2022-10-13T01:43:06.979Z,8.80
2022-10-13T01:45:48.930Z,8.80
2022-10-13T01:48:16.702Z,8.80
2022-10-13T01:50:47.639Z,8.90
2022-10-13T01:53:14.943Z,8.80
2022-10-13T01:56:01.936Z,8.80
2022-10-13T01:58:29.928Z,8.90
2022-10-13T02:01:15.305Z,8.90
2022-10-13T02:04:00.693Z,8.90
2022-10-13T02:06:30.489Z,8.90
2022-10-13T02:09:08.681Z,8.90
2022-10-13T02:11:35.465Z,8.90
2022-10-13T02:14:05.110Z,8.90
2022-10-13T02:16:35.555Z,9.00
2022-10-13T02:19:03.708Z,9.00
2022-10-13T02:21:30.623Z,9.00
2022-10-13T02:24:03.012Z,9.00
2022-10-13T02:26:30.856Z,9.00
2022-10-13T02:29:09.584Z,9.00
2022-10-13T02:31:36.693Z,9.00
2022-10-13T02:34:03.393Z,9.00
2022-10-13T02:36:30.114Z,9.00
2022-10-13T02:38:57.284Z,9.00
2022-10-13T02:41:24.036Z,9.00
2022-10-13T02:43:50.766Z,9.00
2022-10-13T02:46:17.608Z,9.00
2022-10-13T02:48:44.759Z,9.00
2022-10-13T02:51:11.535Z,8.90
2022-10-13T02:53:38.269Z,8.90
2022-10-13T02:56:05.187Z,9.00
2022-10-13T02:58:37.180Z,8.90
2022-10-13T03:01:10.907Z,8.90
2022-10-13T03:03:37.789Z,9.00
2022-10-13T03:06:04.856Z,9.00
2022-10-13T03:08:31.924Z,9.00
2022-10-13T03:10:58.767Z,9.00
2022-10-13T03:13:25.521Z,9.00
2022-10-13T03:15:52.239Z,9.00
2022-10-13T03:18:18.966Z,9.00
2022-10-13T03:20:45.800Z,9.00
2022-10-13T03:23:12.558Z,9.00
2022-10-13T03:25:39.285Z,9.00
2022-10-13T03:28:06.011Z,8.90
2022-10-13T03:30:33.853Z,8.90
2022-10-13T03:33:00.510Z,8.90
2022-10-13T03:35:27.485Z,8.90
2022-10-13T03:37:54.232Z,8.90
2022-10-13T03:40:22.007Z,8.90
2022-10-13T03:42:48.686Z,8.90
2022-10-13T03:45:15.431Z,8.90
2022-10-13T03:47:42.171Z,8.90
2022-10-13T03:50:10.107Z,9.00
2022-10-13T03:52:36.814Z,9.00
2022-10-13T03:55:03.884Z,9.00
2022-10-13T03:57:30.826Z,9.00
2022-10-13T03:59:57.833Z,9.10
2022-10-13T04:02:26.703Z,9.00
2022-10-13T04:04:54.569Z,9.10
2022-10-13T04:07:21.353Z,9.10
2022-10-13T04:09:48.063Z,9.10
2022-10-13T04:12:18.391Z,9.10
2022-10-13T04:14:47.474Z,9.10
2022-10-13T04:17:14.142Z,9.10
2022-10-13T04:19:40.878Z,9.20
2022-10-13T04:22:07.567Z,9.10
2022-10-13T04:24:35.120Z,9.10
2022-10-13T04:27:01.801Z,9.10
2022-10-13T04:29:28.526Z,9.10
2022-10-13T04:31:55.558Z,9.10
2022-10-13T04:34:22.231Z,9.10
2022-10-13T04:36:52.026Z,9.10
2022-10-13T04:39:18.712Z,9.10
2022-10-13T04:41:45.654Z,9.10
2022-10-13T04:44:12.402Z,9.10
2022-10-13T04:46:39.095Z,9.10
2022-10-13T04:49:05.794Z,9.20
2022-10-13T04:51:34.335Z,9.20
2022-10-13T04:54:02.140Z,9.10
2022-10-13T04:56:28.845Z,9.10
2022-10-13T04:59:00.016Z,9.10
2022-10-13T05:01:26.970Z,9.20
2022-10-13T05:03:57.758Z,9.10
2022-10-13T05:06:29.139Z,9.10
2022-10-13T05:08:56.114Z,9.20
2022-10-13T05:11:23.167Z,9.10
2022-10-13T05:13:50.331Z,9.10
2022-10-13T05:16:18.062Z,9.10
2022-10-13T05:18:44.798Z,9.10
2022-10-13T05:21:15.683Z,9.10
2022-10-13T05:23:42.946Z,9.10
2022-10-13T05:26:11.624Z,9.10
2022-10-13T05:28:38.837Z,9.10
2022-10-13T05:31:12.686Z,9.10
2022-10-13T05:33:39.627Z,9.10
2022-10-13T05:36:07.466Z,9.10
2022-10-13T05:38:37.392Z,9.10
2022-10-13T05:41:05.049Z,9.00
2022-10-13T05:43:32.212Z,9.00
2022-10-13T05:45:59.371Z,9.00
2022-10-13T05:48:26.495Z,9.00
2022-10-13T05:50:54.154Z,9.00
2022-10-13T05:53:22.213Z,8.90
2022-10-13T05:55:50.467Z,8.90
2022-10-13T05:58:17.551Z,8.80
2022-10-13T06:00:44.933Z,8.80
2022-10-13T06:03:14.628Z,8.80
2022-10-13T06:05:47.406Z,8.80
2022-10-13T06:08:15.018Z,8.90
2022-10-13T06:10:43.269Z,8.90
2022-10-13T06:13:10.213Z,8.90
2022-10-13T06:15:36.922Z,8.90
2022-10-13T06:18:07.127Z,9.00
2022-10-13T06:20:33.819Z,9.00
2022-10-13T06:23:00.566Z,9.20
2022-10-13T06:25:27.293Z,9.30
2022-10-13T06:27:54.033Z,9.40
2022-10-13T06:30:20.759Z,9.40
2022-10-13T06:32:47.548Z,9.50
2022-10-13T06:35:14.676Z,9.40
2022-10-13T06:37:41.417Z,9.40
2022-10-13T06:40:10.382Z,9.40
2022-10-13T06:42:37.103Z,9.40
2022-10-13T06:45:10.027Z,9.50
2022-10-13T06:47:40.176Z,9.60
2022-10-13T06:50:06.972Z,9.60
2022-10-13T06:52:33.680Z,9.80
2022-10-13T06:55:00.398Z,9.80
2022-10-13T06:57:29.235Z,9.90
2022-10-13T06:59:57.408Z,10.00
2022-10-13T07:02:24.087Z,10.10
2022-10-13T07:04:50.868Z,10.00
2022-10-13T07:07:17.663Z,10.10
2022-10-13T07:09:45.114Z,10.20
2022-10-13T07:12:14.123Z,10.30
2022-10-13T07:14:43.684Z,10.40
2022-10-13T07:17:11.041Z,10.50
2022-10-13T07:19:37.791Z,10.70
2022-10-13T07:22:04.740Z,10.90
2022-10-13T07:24:31.477Z,11.00
2022-10-13T07:26:58.171Z,11.10
2022-10-13T07:29:24.962Z,11.30
2022-10-13T07:31:51.641Z,11.40
2022-10-13T07:34:18.322Z,11.40
2022-10-13T07:36:45.047Z,11.40
2022-10-13T07:39:11.925Z,11.50
2022-10-13T07:41:38.678Z,11.50
2022-10-13T07:44:05.419Z,11.40
2022-10-13T07:46:32.119Z,11.50
2022-10-13T07:48:58.900Z,11.60
2022-10-13T07:51:25.652Z,11.60
2022-10-13T07:53:52.513Z,11.70
2022-10-13T07:56:19.279Z,11.70
2022-10-13T07:58:47.849Z,11.80
2022-10-13T08:01:15.797Z,11.90
2022-10-13T08:03:45.622Z,12.10
2022-10-13T08:06:18.404Z,12.00
2022-10-13T08:08:45.105Z,11.90
2022-10-13T08:11:17.276Z,11.90
2022-10-13T08:13:48.801Z,11.90
2022-10-13T08:16:20.701Z,11.80
2022-10-13T08:18:47.616Z,11.70
2022-10-13T08:24:03.478Z,11.60
2022-10-13T08:26:30.371Z,11.50
2022-10-13T08:29:16.895Z,11.40
2022-10-13T08:31:44.403Z,11.40
2022-10-13T08:34:11.724Z,11.40
2022-10-13T08:36:39.747Z,11.50
2022-10-13T08:39:07.136Z,11.50
2022-10-13T08:41:36.937Z,11.60
2022-10-13T08:44:56.759Z,11.60
2022-10-13T08:47:00.836Z,11.70
2022-10-13T08:49:28.563Z,11.80
2022-10-13T08:51:55.641Z,12.00
2022-10-13T08:54:25.241Z,12.10
2022-10-13T08:56:53.215Z,12.30
2022-10-13T08:59:21.713Z,12.40
2022-10-13T09:01:52.385Z,12.40
2022-10-13T09:04:36.461Z,12.40
2022-10-13T09:07:06.267Z,12.40
2022-10-13T09:09:33.073Z,12.50
2022-10-13T09:11:59.972Z,12.50
2022-10-13T09:14:28.700Z,12.50
2022-10-13T09:16:57.345Z,12.70
2022-10-13T09:19:25.741Z,12.90
2022-10-13T09:21:54.244Z,13.00
2022-10-13T09:24:21.715Z,13.10
2022-10-13T09:26:49.894Z,13.30
2022-10-13T09:29:26.425Z,13.50
2022-10-13T09:32:28.810Z,13.80
2022-10-13T09:35:12.522Z,13.90
2022-10-13T09:37:39.305Z,14.00
2022-10-13T09:40:14.001Z,14.10
2022-10-13T09:42:40.903Z,14.20
2022-10-13T09:45:15.368Z,14.30
2022-10-13T09:47:49.233Z,14.40
2022-10-13T09:50:16.118Z,14.50
2022-10-13T09:52:44.571Z,14.40
2022-10-13T09:55:32.793Z,14.30
2022-10-13T09:58:06.149Z,14.30
2022-10-13T10:00:33.075Z,14.20
2022-10-13T10:03:05.565Z,14.10
2022-10-13T10:05:42.083Z,14.00
2022-10-13T10:08:15.494Z,14.00
2022-10-13T10:10:42.345Z,14.00
2022-10-13T10:13:13.170Z,14.10
2022-10-13T10:16:02.880Z,14.10
2022-10-13T10:18:35.660Z,14.00
2022-10-13T10:21:05.515Z,14.10
2022-10-13T10:23:43.386Z,14.20
2022-10-13T10:26:10.498Z,14.20
2022-10-13T10:28:40.398Z,14.30
2022-10-13T10:31:25.841Z,14.40
2022-10-13T10:33:59.655Z,14.50
2022-10-13T10:36:34.161Z,14.60
2022-10-13T10:39:12.877Z,14.80
2022-10-13T10:42:00.791Z,15.00
2022-10-13T10:44:27.492Z,15.00
2022-10-13T10:46:55.093Z,15.10
2022-10-13T10:49:36.425Z,15.20
2022-10-13T10:52:06.417Z,15.30
2022-10-13T10:54:48.318Z,15.20
2022-10-13T10:57:35.119Z,15.30
2022-10-13T11:00:01.887Z,15.30
2022-10-13T11:02:41.371Z,15.40
2022-10-13T11:05:08.160Z,15.30
2022-10-13T11:07:44.454Z,15.20
2022-10-13T11:10:14.219Z,15.20
2022-10-13T11:12:45.568Z,15.00
2022-10-13T11:15:33.686Z,15.00
2022-10-13T11:18:00.378Z,15.00
2022-10-13T11:20:46.976Z,14.90
2022-10-13T11:23:13.594Z,14.90
2022-10-13T11:25:40.408Z,14.90
2022-10-13T11:28:19.616Z,14.80
2022-10-13T11:30:55.292Z,14.80
2022-10-13T11:33:35.876Z,14.90
2022-10-13T11:36:21.710Z,14.90
2022-10-13T11:38:52.060Z,14.70
2022-10-13T11:41:24.696Z,14.70
2022-10-13T11:43:55.678Z,14.60
2022-10-13T11:46:38.845Z,14.60
2022-10-13T11:49:29.201Z,14.60
2022-10-13T11:52:04.470Z,14.70
2022-10-13T11:55:03.577Z,14.60
2022-10-13T11:57:32.862Z,14.50
2022-10-13T12:00:02.314Z,14.40
2022-10-13T12:02:52.637Z,14.40
2022-10-13T12:05:26.492Z,14.40
2022-10-13T12:07:55.239Z,14.30
2022-10-13T12:10:29.646Z,14.20
2022-10-13T12:12:56.463Z,14.10
2022-10-13T12:15:35.235Z,14.10
2022-10-13T12:18:02.262Z,14.10
2022-10-13T12:20:31.184Z,14.00
2022-10-13T12:22:58.182Z,14.00
2022-10-13T12:25:26.695Z,14.00
2022-10-13T12:27:59.764Z,14.00
2022-10-13T12:30:31.641Z,14.10
2022-10-13T12:32:59.641Z,14.10
2022-10-13T12:35:28.485Z,14.10
2022-10-13T12:37:55.633Z,14.00
2022-10-13T12:40:22.893Z,14.00
2022-10-13T12:42:49.848Z,14.00
2022-10-13T12:45:18.654Z,14.10
2022-10-13T12:47:45.514Z,14.00
2022-10-13T12:50:21.731Z,14.00
2022-10-13T12:52:50.186Z,14.10
2022-10-13T12:55:18.934Z,14.10
2022-10-13T12:57:47.175Z,14.10
2022-10-13T13:00:16.994Z,14.10
2022-10-13T13:02:52.129Z,14.10
2022-10-13T13:05:34.154Z,14.10
2022-10-13T13:08:20.611Z,14.10
2022-10-13T13:11:00.743Z,14.00
2022-10-13T13:13:27.854Z,14.00
2022-10-13T13:15:54.933Z,13.90
2022-10-13T13:18:22.713Z,13.90
2022-10-13T13:20:49.413Z,14.00
2022-10-13T13:23:19.024Z,14.00
2022-10-13T13:25:47.118Z,13.90
2022-10-13T13:28:16.212Z,13.80
2022-10-13T13:30:44.341Z,13.80
2022-10-13T13:35:59.525Z,13.90
2022-10-13T13:38:27.166Z,14.00
2022-10-13T13:41:00.119Z,14.00
2022-10-13T13:43:30.960Z,14.10
2022-10-13T13:45:58.482Z,14.00
2022-10-13T13:48:27.485Z,14.00
2022-10-13T13:50:55.121Z,14.00
2022-10-13T13:53:22.717Z,14.00
2022-10-13T13:55:50.454Z,14.00
2022-10-13T13:58:19.166Z,14.00
2022-10-13T14:00:46.729Z,13.90
2022-10-13T14:03:19.158Z,13.90
2022-10-13T14:05:47.142Z,13.90
2022-10-13T14:08:14.588Z,13.80
2022-10-13T14:10:42.299Z,13.70
2022-10-13T14:13:09.886Z,13.70
2022-10-13T14:15:37.203Z,13.60
2022-10-13T14:18:04.830Z,13.70
2022-10-13T14:20:33.690Z,13.60
2022-10-13T14:23:01.011Z,13.60
2022-10-13T14:25:28.504Z,13.70
2022-10-13T14:27:56.100Z,13.70
2022-10-13T14:30:22.946Z,13.70
2022-10-13T14:32:50.057Z,13.60
2022-10-13T14:35:16.991Z,13.60
2022-10-13T14:37:43.677Z,13.40
2022-10-13T14:40:10.562Z,13.50
2022-10-13T14:42:39.221Z,13.50
2022-10-13T14:45:06.667Z,13.40
2022-10-13T14:47:33.380Z,13.40
2022-10-13T14:50:01.897Z,13.30
2022-10-13T14:52:28.787Z,13.30
2022-10-13T14:54:55.510Z,13.30
2022-10-13T14:57:22.887Z,13.20
2022-10-13T14:59:49.931Z,13.30
2022-10-13T15:02:16.916Z,13.30
2022-10-13T15:04:53.049Z,13.30
2022-10-13T15:07:20.165Z,13.40
2022-10-13T15:09:52.916Z,13.40
2022-10-13T15:12:28.140Z,13.50
2022-10-13T15:14:54.895Z,13.60
2022-10-13T15:17:21.939Z,13.70
2022-10-13T15:19:48.701Z,13.70
2022-10-13T15:22:15.514Z,13.70
2022-10-13T15:24:43.381Z,13.80
2022-10-13T15:27:10.093Z,13.80
2022-10-13T15:29:36.970Z,13.70
2022-10-13T15:32:08.274Z,13.60
2022-10-13T15:34:35.081Z,13.50
2022-10-13T15:37:01.799Z,13.40
2022-10-13T15:39:28.665Z,13.40
2022-10-13T15:41:55.877Z,13.30
2022-10-13T15:44:25.787Z,13.40
2022-10-13T15:47:07.484Z,13.40
2022-10-13T15:49:37.398Z,13.30
2022-10-13T15:52:04.209Z,13.40
2022-10-13T15:54:31.026Z,13.40
2022-10-13T15:56:57.855Z,13.40
2022-10-13T15:59:25.633Z,13.40
2022-10-13T16:01:52.646Z,13.40
2022-10-13T16:04:19.418Z,13.50
2022-10-13T16:06:46.125Z,13.50
2022-10-13T16:09:12.798Z,13.50
2022-10-13T16:11:39.508Z,13.60
2022-10-13T16:14:06.178Z,13.60
2022-10-13T16:16:32.913Z,13.70
2022-10-13T16:19:00.009Z,13.70
2022-10-13T16:21:26.973Z,13.80
2022-10-13T16:23:53.714Z,13.80
2022-10-13T16:26:20.731Z,13.90
2022-10-13T16:28:47.488Z,13.90
2022-10-13T16:31:15.231Z,14.00
2022-10-13T16:33:45.689Z,14.00
2022-10-13T16:36:14.068Z,14.00
2022-10-13T16:38:41.725Z,13.90
2022-10-13T16:41:10.199Z,13.70
2022-10-13T16:43:36.999Z,13.60
2022-10-13T16:46:04.529Z,13.50
2022-10-13T16:48:33.123Z,13.40
2022-10-13T16:51:04.117Z,13.30
2022-10-13T16:53:30.857Z,13.20
2022-10-13T16:55:57.671Z,13.10
2022-10-13T16:58:24.700Z,13.10
2022-10-13T17:00:51.437Z,13.10
2022-10-13T17:03:18.198Z,13.10
2022-10-13T17:05:51.573Z,13.00
2022-10-13T17:08:18.291Z,13.00
2022-10-13T17:10:44.981Z,13.00
2022-10-13T17:13:11.664Z,12.90
2022-10-13T17:15:38.389Z,12.90
2022-10-13T17:18:05.223Z,12.90
2022-10-13T17:20:31.976Z,12.90
2022-10-13T17:22:58.775Z,12.90
2022-10-13T17:25:25.426Z,12.80
2022-10-13T17:27:52.594Z,12.80
2022-10-13T17:30:19.466Z,12.80
2022-10-13T17:32:46.160Z,12.80
2022-10-13T17:35:17.910Z,12.80
2022-10-13T17:37:44.727Z,12.80
2022-10-13T17:40:12.260Z,12.70
2022-10-13T17:42:38.963Z,12.80
2022-10-13T17:45:05.839Z,12.80
2022-10-13T17:47:32.578Z,12.70
2022-10-13T17:49:59.347Z,12.70
2022-10-13T17:52:26.875Z,12.80
2022-10-13T17:54:53.648Z,12.90
2022-10-13T17:57:21.872Z,12.80
2022-10-13T17:59:53.962Z,12.80
2022-10-13T18:02:21.777Z,12.80
2022-10-13T18:04:48.454Z,12.80
2022-10-13T18:07:15.114Z,12.80
2022-10-13T18:09:41.834Z,12.90
2022-10-13T18:12:08.604Z,12.90
2022-10-13T18:14:35.428Z,12.80
2022-10-13T18:17:02.160Z,12.80
2022-10-13T18:19:28.827Z,12.70
2022-10-13T18:21:55.536Z,12.70
2022-10-13T18:24:22.378Z,12.60
2022-10-13T18:26:49.113Z,12.60
2022-10-13T18:29:16.010Z,12.60
2022-10-13T18:31:42.792Z,12.50
2022-10-13T18:34:17.053Z,12.60
2022-10-13T18:36:44.925Z,12.70
2022-10-13T18:39:12.995Z,12.80
2022-10-13T18:41:40.246Z,12.80
2022-10-13T18:44:07.277Z,12.80
2022-10-13T18:46:34.426Z,12.90
2022-10-13T18:49:01.262Z,12.90
2022-10-13T18:51:33.371Z,12.90
2022-10-13T18:54:02.489Z,12.90
2022-10-13T18:56:30.166Z,13.00
2022-10-13T18:58:59.633Z,13.10
2022-10-13T19:01:27.522Z,13.10
2022-10-13T19:03:54.703Z,13.10
2022-10-13T19:06:27.988Z,13.10
2022-10-13T19:08:59.058Z,13.00
2022-10-13T19:11:26.117Z,13.00
2022-10-13T19:13:53.290Z,13.00
2022-10-13T19:16:21.135Z,13.00
2022-10-13T19:18:48.419Z,13.10
2022-10-13T19:21:15.225Z,13.10
2022-10-13T19:23:41.990Z,13.20
2022-10-13T19:26:21.261Z,13.50
2022-10-13T19:28:48.114Z,13.60
2022-10-13T19:31:19.091Z,13.70
2022-10-13T19:33:47.193Z,13.70
2022-10-13T19:36:24.377Z,13.70
2022-10-13T19:38:54.019Z,13.50
2022-10-13T19:41:21.134Z,13.50
2022-10-13T19:43:48.024Z,13.50
2022-10-13T19:46:14.794Z,13.50
2022-10-13T19:48:41.493Z,13.80
2022-10-13T19:51:08.751Z,13.90
2022-10-13T19:53:36.021Z,13.80
2022-10-13T19:56:02.756Z,13.70
2022-10-13T19:58:29.550Z,13.60
2022-10-13T20:01:01.302Z,13.60
2022-10-13T20:03:28.075Z,13.60
2022-10-13T20:05:54.786Z,13.50
2022-10-13T20:08:21.455Z,13.50
2022-10-13T20:10:48.203Z,13.50
2022-10-13T20:13:14.934Z,13.40
2022-10-13T20:15:43.237Z,13.30
2022-10-13T20:18:13.092Z,13.30
2022-10-13T20:20:40.803Z,13.20
2022-10-13T20:23:07.686Z,13.00
2022-10-13T20:25:38.162Z,12.90
2022-10-13T20:28:05.448Z,12.70
2022-10-13T20:30:32.667Z,12.60
2022-10-13T20:32:59.472Z,12.60
2022-10-13T20:35:26.195Z,12.50
2022-10-13T20:37:54.168Z,12.50
2022-10-13T20:40:21.317Z,12.50
2022-10-13T20:42:51.726Z,12.50
2022-10-13T20:45:20.183Z,12.60
2022-10-13T20:47:48.693Z,12.70
2022-10-13T20:50:15.611Z,12.70
2022-10-13T20:52:42.712Z,12.70
2022-10-13T20:55:09.688Z,12.60
2022-10-13T20:57:36.877Z,12.60
2022-10-13T21:00:04.826Z,12.50
2022-10-13T21:02:31.497Z,12.50
2022-10-13T21:04:58.265Z,12.50
2022-10-13T21:07:25.027Z,12.50
2022-10-13T21:09:53.963Z,12.60
2022-10-13T21:12:21.550Z,12.50
2022-10-13T21:14:48.306Z,12.50
2022-10-13T21:17:15.002Z,12.50
2022-10-13T21:19:41.770Z,12.50
2022-10-13T21:22:08.494Z,12.50
2022-10-13T21:24:35.208Z,12.40
2022-10-13T21:27:01.974Z,12.40
2022-10-13T21:29:28.806Z,12.40
2022-10-13T21:31:55.534Z,12.40
2022-10-13T21:34:22.390Z,12.30
2022-10-13T21:36:49.051Z,12.10
2022-10-13T21:39:15.768Z,12.00
2022-10-13T21:41:42.486Z,12.00
2022-10-13T21:44:12.226Z,12.00
2022-10-13T21:46:38.908Z,12.00
2022-10-13T21:49:05.674Z,12.00
2022-10-13T21:51:33.924Z,12.10
2022-10-13T21:54:02.573Z,12.00
2022-10-13T21:56:30.342Z,11.90
2022-10-13T21:58:59.168Z,11.90
2022-10-13T22:01:26.006Z,11.80
2022-10-13T22:03:53.868Z,11.70
2022-10-13T22:06:23.628Z,11.60
2022-10-13T22:08:51.030Z,11.60
2022-10-13T22:11:21.278Z,11.50
2022-10-13T22:13:48.016Z,11.50
2022-10-13T22:16:19.100Z,11.50
2022-10-13T22:18:46.414Z,11.40
2022-10-13T22:21:14.966Z,11.50
2022-10-13T22:23:42.159Z,11.50
2022-10-13T22:26:09.327Z,11.50
2022-10-13T22:28:37.434Z,11.50
2022-10-13T22:31:05.701Z,11.50
2022-10-13T22:33:33.662Z,11.50
2022-10-13T22:36:00.442Z,11.50
2022-10-13T22:38:27.158Z,11.50
2022-10-13T22:40:53.916Z,11.50
2022-10-13T22:43:20.744Z,11.40
2022-10-13T22:45:51.512Z,11.40
2022-10-13T22:48:18.277Z,11.40
2022-10-13T22:50:45.269Z,11.30
2022-10-13T22:53:12.584Z,11.30
2022-10-13T22:55:40.427Z,11.30
2022-10-13T22:58:07.590Z,11.20
2022-10-13T23:00:35.131Z,11.20
2022-10-13T23:03:02.254Z,11.20
2022-10-13T23:05:29.192Z,11.20
2022-10-13T23:07:55.890Z,11.10
2022-10-13T23:10:24.368Z,11.10
2022-10-13T23:12:51.079Z,11.10
2022-10-13T23:15:17.796Z,11.10
2022-10-13T23:17:44.516Z,11.10
2022-10-13T23:20:11.317Z,11.10
2022-10-13T23:22:38.065Z,11.10
2022-10-13T23:25:04.893Z,11.10
2022-10-13T23:27:31.567Z,11.10
2022-10-13T23:29:58.246Z,11.00
2022-10-13T23:32:25.030Z,11.10
2022-10-13T23:34:51.700Z,11.00
2022-10-13T23:37:19.842Z,11.00
2022-10-13T23:39:46.735Z,11.00
2022-10-13T23:42:13.438Z,10.90
2022-10-13T23:44:40.141Z,10.90
2022-10-13T23:47:06.809Z,10.90
2022-10-13T23:49:33.519Z,10.90
2022-10-13T23:52:00.184Z,10.90
2022-10-13T23:54:26.896Z,11.00
2022-10-13T23:56:53.604Z,11.00
2022-10-13T23:59:20.283Z,11.00
